Time;durP1;ratioP1;P1;durP2;ratioP2;P2;SDS_P1;SDS_P2;PMS_P1;PMS_P2;Temp;Humidity;BMP_temperature;BMP_pressure;BME280_temperature;BME280_humidity;BME280_pressure;Samples;Min_cycle;Max_cycle;Signal;HPM_P1;HPM_P2
2023/07/30 00:01:24;;;;;;;7.27;2.83;;;;;;;;;;5072229;28;20635;-82
2023/07/30 00:03:51;;;;;;;5.80;2.87;;;;;;;;;;5072217;28;20237;-83
2023/07/30 00:06:18;;;;;;;8.77;3.10;;;;;;;;;;5072138;28;20322;-83
2023/07/30 00:08:45;;;;;;;7.93;2.83;;;;;;;;;;5072244;28;20287;-83
2023/07/30 00:11:13;;;;;;;6.77;2.60;;;;;;;;;;5071821;28;20286;-83
2023/07/30 00:13:40;;;;;;;8.73;2.40;;;;;;;;;;5072463;28;20215;-83
2023/07/30 00:16:09;;;;;;;9.20;2.50;;;;;;;;;;5071847;28;20266;-82
2023/07/30 00:18:36;;;;;;;7.43;2.40;;;;;;;;;;5072285;28;20278;-82
2023/07/30 00:21:03;;;;;;;9.27;2.50;;;;;;;;;;5071930;28;20330;-83
2023/07/30 00:23:30;;;;;;;8.50;2.43;;;;;;;;;;5071524;28;20199;-83
2023/07/30 00:25:58;;;;;;;7.53;2.30;;;;;;;;;;5071346;28;20818;-82
2023/07/30 00:28:25;;;;;;;8.53;2.50;;;;;;;;;;5071815;28;20241;-83
2023/07/30 00:30:52;;;;;;;5.30;2.57;;;;;;;;;;5072008;28;20290;-83
2023/07/30 00:33:21;;;;;;;6.43;1.90;;;;;;;;;;5071734;28;20257;-83
2023/07/30 00:35:48;;;;;;;7.33;2.03;;;;;;;;;;5071952;28;20234;-83
2023/07/30 00:38:15;;;;;;;7.10;2.00;;;;;;;;;;5071633;28;20230;-82
2023/07/30 00:40:43;;;;;;;6.27;2.30;;;;;;;;;;5071489;28;20608;-83
2023/07/30 00:43:10;;;;;;;4.20;2.03;;;;;;;;;;5071536;28;20601;-83
2023/07/30 00:45:37;;;;;;;6.23;2.10;;;;;;;;;;5071708;28;20619;-83
2023/07/30 00:48:05;;;;;;;9.73;2.67;;;;;;;;;;5071452;28;20231;-83
2023/07/30 00:50:34;;;;;;;6.60;2.03;;;;;;;;;;5071863;28;20230;-82
2023/07/30 00:53:01;;;;;;;7.40;2.33;;;;;;;;;;5071250;28;20264;-83
2023/07/30 00:55:29;;;;;;;11.00;2.67;;;;;;;;;;5071360;28;20252;-83
2023/07/30 00:57:56;;;;;;;6.20;2.20;;;;;;;;;;5071037;28;20771;-83
2023/07/30 01:00:24;;;;;;;7.73;2.40;;;;;;;;;;5071605;28;20662;-82
2023/07/30 01:02:52;;;;;;;5.83;2.10;;;;;;;;;;5070471;28;20195;-82
2023/07/30 01:05:20;;;;;;;5.03;2.10;;;;;;;;;;5071203;28;20294;-83
2023/07/30 01:07:48;;;;;;;7.10;2.13;;;;;;;;;;5071572;28;20227;-82
2023/07/30 01:10:16;;;;;;;11.17;2.47;;;;;;;;;;5070851;28;20734;-82
2023/07/30 01:12:44;;;;;;;5.37;2.13;;;;;;;;;;5071222;28;20199;-83
2023/07/30 01:15:12;;;;;;;8.77;2.13;;;;;;;;;;5071390;28;20201;-84
2023/07/30 01:17:39;;;;;;;8.73;2.50;;;;;;;;;;5070645;28;20723;-83
2023/07/30 01:20:07;;;;;;;10.00;2.87;;;;;;;;;;5071758;28;20290;-82
2023/07/30 01:22:36;;;;;;;11.53;2.17;;;;;;;;;;5071016;28;20317;-83
2023/07/30 01:25:03;;;;;;;8.10;2.33;;;;;;;;;;5071174;28;20638;-82
2023/07/30 01:27:32;;;;;;;8.47;2.30;;;;;;;;;;5071070;28;20318;-83
2023/07/30 01:30:04;;;;;;;8.23;2.30;;;;;;;;;;5069716;28;20627;-83
2023/07/30 01:32:32;;;;;;;7.23;2.40;;;;;;;;;;5070903;28;20320;-83
2023/07/30 01:34:59;;;;;;;10.33;2.43;;;;;;;;;;5071262;28;20201;-83
2023/07/30 01:37:27;;;;;;;8.90;2.30;;;;;;;;;;5070416;28;20227;-83
2023/07/30 01:39:57;;;;;;;7.60;2.20;;;;;;;;;;5070666;28;20294;-82
2023/07/30 01:42:29;;;;;;;6.20;1.87;;;;;;;;;;5071364;28;20226;-83
2023/07/30 01:44:57;;;;;;;6.40;2.10;;;;;;;;;;5070350;28;20755;-83
2023/07/30 01:47:24;;;;;;;8.47;2.30;;;;;;;;;;5071039;28;20329;-82
2023/07/30 01:49:52;;;;;;;8.90;2.10;;;;;;;;;;5071124;28;20278;-83
2023/07/30 01:52:19;;;;;;;9.20;2.40;;;;;;;;;;5071239;28;20282;-83
2023/07/30 01:54:46;;;;;;;10.73;2.87;;;;;;;;;;5070428;28;20286;-83
2023/07/30 01:57:15;;;;;;;8.03;2.57;;;;;;;;;;5070887;28;20294;-82
2023/07/30 01:59:42;;;;;;;8.60;2.43;;;;;;;;;;5070539;28;20615;-83
2023/07/30 02:02:10;;;;;;;7.50;1.80;;;;;;;;;;5070893;28;20287;-82
2023/07/30 02:04:37;;;;;;;5.70;2.20;;;;;;;;;;5071339;28;20708;-82
2023/07/30 02:07:04;;;;;;;6.83;2.27;;;;;;;;;;5074780;28;20314;-83
2023/07/30 02:09:32;;;;;;;8.23;2.20;;;;;;;;;;5074270;28;20282;-82
2023/07/30 02:11:59;;;;;;;8.97;2.23;;;;;;;;;;5074543;28;20643;-83
2023/07/30 02:14:28;;;;;;;11.67;2.23;;;;;;;;;;5074821;28;20727;-82
2023/07/30 02:16:55;;;;;;;6.70;2.20;;;;;;;;;;5074100;28;20286;-83
2023/07/30 02:19:22;;;;;;;7.57;2.30;;;;;;;;;;5074383;28;20196;-83
2023/07/30 02:21:49;;;;;;;8.17;1.90;;;;;;;;;;5073733;28;20258;-82
2023/07/30 02:24:17;;;;;;;7.37;2.27;;;;;;;;;;5074392;28;20581;-83
2023/07/30 02:26:44;;;;;;;7.07;2.33;;;;;;;;;;5073812;28;20310;-83
2023/07/30 02:29:11;;;;;;;6.60;2.40;;;;;;;;;;5074120;28;20702;-83
2023/07/30 02:31:40;;;;;;;8.00;2.30;;;;;;;;;;5074268;28;20227;-83
2023/07/30 02:34:08;;;;;;;10.10;2.33;;;;;;;;;;5074112;28;20290;-82
2023/07/30 02:36:35;;;;;;;7.60;2.37;;;;;;;;;;5073366;28;20225;-83
2023/07/30 02:39:02;;;;;;;9.70;2.27;;;;;;;;;;5073881;28;20195;-83
2023/07/30 02:41:30;;;;;;;9.50;2.63;;;;;;;;;;5074035;28;20286;-83
2023/07/30 02:43:57;;;;;;;5.93;2.20;;;;;;;;;;5074132;28;20660;-82
2023/07/30 02:46:24;;;;;;;10.60;2.90;;;;;;;;;;5072934;28;20310;-83
2023/07/30 02:48:53;;;;;;;5.43;2.13;;;;;;;;;;5073747;28;20650;-83
2023/07/30 02:51:20;;;;;;;12.30;2.50;;;;;;;;;;5073318;28;20223;-83
2023/07/30 02:53:47;;;;;;;6.73;2.30;;;;;;;;;;5074108;28;20226;-83
2023/07/30 02:56:15;;;;;;;7.60;2.47;;;;;;;;;;5074156;28;20285;-83
2023/07/30 02:58:42;;;;;;;9.23;2.60;;;;;;;;;;5073801;28;20241;-83
2023/07/30 03:01:09;;;;;;;7.47;2.47;;;;;;;;;;5073813;28;20234;-82
2023/07/30 03:03:37;;;;;;;6.93;2.70;;;;;;;;;;5073883;28;20272;-83
2023/07/30 03:06:06;;;;;;;9.50;2.80;;;;;;;;;;5073110;28;20648;-82
2023/07/30 03:08:35;;;;;;;8.10;2.83;;;;;;;;;;5073361;28;20664;-83
2023/07/30 03:11:03;;;;;;;11.47;2.90;;;;;;;;;;5073579;28;20206;-83
2023/07/30 03:13:30;;;;;;;9.97;2.80;;;;;;;;;;5073426;28;20302;-82
2023/07/30 03:15:57;;;;;;;10.17;3.13;;;;;;;;;;5073097;28;20211;-84
2023/07/30 03:18:24;;;;;;;9.33;2.67;;;;;;;;;;5073306;28;20306;-83
2023/07/30 03:20:52;;;;;;;14.03;3.83;;;;;;;;;;5072753;28;20286;-83
2023/07/30 03:23:21;;;;;;;9.90;2.50;;;;;;;;;;5073240;28;20294;-83
2023/07/30 03:25:48;;;;;;;10.97;2.70;;;;;;;;;;5073069;28;20298;-83
2023/07/30 03:28:15;;;;;;;11.07;2.77;;;;;;;;;;5072846;28;20288;-82
2023/07/30 03:30:42;;;;;;;8.97;2.70;;;;;;;;;;5073422;28;20676;-82
2023/07/30 03:33:10;;;;;;;9.03;2.93;;;;;;;;;;5072388;28;20748;-82
2023/07/30 03:35:37;;;;;;;8.57;2.70;;;;;;;;;;5072650;28;20278;-83
2023/07/30 03:38:04;;;;;;;8.20;3.00;;;;;;;;;;5072918;28;20336;-82
2023/07/30 03:40:33;;;;;;;10.47;2.57;;;;;;;;;;5073219;28;20195;-81
2023/07/30 03:43:00;;;;;;;10.00;2.50;;;;;;;;;;5072494;28;20738;-82
2023/07/30 03:45:28;;;;;;;12.37;2.77;;;;;;;;;;5072581;28;20746;-83
2023/07/30 03:47:55;;;;;;;7.27;2.50;;;;;;;;;;5072515;28;20326;-83
2023/07/30 03:50:22;;;;;;;8.23;2.67;;;;;;;;;;5072907;28;20230;-83
2023/07/30 03:52:49;;;;;;;10.57;2.70;;;;;;;;;;5072615;28;20225;-83
2023/07/30 03:55:16;;;;;;;13.50;2.73;;;;;;;;;;5072712;28;20252;-82
2023/07/30 03:57:45;;;;;;;13.30;2.93;;;;;;;;;;5072812;28;20199;-82
2023/07/30 04:00:13;;;;;;;10.53;2.67;;;;;;;;;;5072188;28;20198;-83
2023/07/30 04:02:40;;;;;;;10.77;2.90;;;;;;;;;;5072306;28;20269;-82
2023/07/30 04:05:07;;;;;;;9.63;2.90;;;;;;;;;;5072144;28;20203;-83
2023/07/30 04:07:35;;;;;;;8.23;2.70;;;;;;;;;;5073235;28;20299;-83
2023/07/30 04:10:02;;;;;;;10.77;2.70;;;;;;;;;;5072011;28;20282;-83
2023/07/30 04:12:29;;;;;;;10.87;3.07;;;;;;;;;;5072224;28;20294;-83
2023/07/30 04:14:58;;;;;;;9.17;2.90;;;;;;;;;;5072014;28;20231;-82
2023/07/30 04:17:25;;;;;;;10.53;2.77;;;;;;;;;;5071835;28;20226;-83
2023/07/30 04:19:52;;;;;;;11.57;3.13;;;;;;;;;;5071860;28;20641;-83
2023/07/30 04:22:19;;;;;;;11.27;2.63;;;;;;;;;;5071872;28;20333;-82
2023/07/30 04:24:47;;;;;;;16.07;3.33;;;;;;;;;;5071869;28;20226;-82
2023/07/30 04:27:14;;;;;;;12.60;3.30;;;;;;;;;;5071314;28;20229;-83
2023/07/30 04:29:41;;;;;;;9.93;3.03;;;;;;;;;;5072259;28;20381;-82
2023/07/30 04:32:10;;;;;;;11.67;3.20;;;;;;;;;;5064253;28;20818;-82
2023/07/30 04:34:38;;;;;;;11.97;2.97;;;;;;;;;;5058545;28;20239;-82
2023/07/30 04:37:05;;;;;;;14.70;3.57;;;;;;;;;;5051947;28;20200;-82
2023/07/30 04:39:34;;;;;;;10.87;3.20;;;;;;;;;;5051921;28;20649;-82
2023/07/30 04:42:01;;;;;;;13.33;3.10;;;;;;;;;;5051839;28;20295;-83
2023/07/30 04:44:28;;;;;;;11.73;3.17;;;;;;;;;;5052007;28;20231;-83
2023/07/30 04:46:55;;;;;;;12.83;2.97;;;;;;;;;;5051016;28;20227;-82
2023/07/30 04:49:24;;;;;;;12.77;3.13;;;;;;;;;;5051479;28;20195;-83
2023/07/30 04:51:51;;;;;;;14.73;3.03;;;;;;;;;;5052078;28;20287;-83
2023/07/30 04:54:18;;;;;;;14.37;3.13;;;;;;;;;;5051242;28;20752;-83
2023/07/30 04:56:46;;;;;;;8.37;2.70;;;;;;;;;;5051442;28;20638;-82
2023/07/30 04:59:13;;;;;;;14.53;3.27;;;;;;;;;;5051684;28;20211;-83
2023/07/30 05:01:40;;;;;;;16.93;3.63;;;;;;;;;;5051047;28;20199;-83
2023/07/30 05:04:08;;;;;;;12.90;3.00;;;;;;;;;;5051311;28;20272;-83
2023/07/30 05:06:36;;;;;;;11.43;3.03;;;;;;;;;;5051507;28;20668;-82
2023/07/30 05:09:03;;;;;;;12.27;3.40;;;;;;;;;;5051517;28;20319;-83
2023/07/30 05:11:31;;;;;;;14.53;3.33;;;;;;;;;;5051305;28;20192;-82
2023/07/30 05:13:58;;;;;;;8.93;3.23;;;;;;;;;;5050884;28;20294;-83
2023/07/30 05:16:25;;;;;;;14.33;3.83;;;;;;;;;;5059533;28;20206;-82
2023/07/30 05:18:52;;;;;;;12.23;3.03;;;;;;;;;;5071323;28;20281;-82
2023/07/30 05:21:20;;;;;;;11.57;2.90;;;;;;;;;;5070881;28;20223;-81
2023/07/30 05:23:48;;;;;;;14.33;3.93;;;;;;;;;;5071294;28;20201;-82
2023/07/30 05:26:15;;;;;;;11.40;2.97;;;;;;;;;;5071256;28;20639;-82
2023/07/30 05:28:42;;;;;;;12.77;3.20;;;;;;;;;;5071388;28;20657;-82
2023/07/30 05:31:10;;;;;;;12.23;3.27;;;;;;;;;;5070915;28;20222;-83
2023/07/30 05:33:37;;;;;;;12.47;3.40;;;;;;;;;;5071334;28;20283;-83
2023/07/30 05:36:05;;;;;;;12.47;3.13;;;;;;;;;;5071014;28;20567;-82
2023/07/30 05:38:33;;;;;;;7.73;3.20;;;;;;;;;;5072663;28;20736;-82
2023/07/30 05:41:02;;;;;;;11.67;3.07;;;;;;;;;;5075091;28;20256;-83
2023/07/30 05:43:29;;;;;;;8.17;2.87;;;;;;;;;;5075349;28;20285;-83
2023/07/30 05:45:56;;;;;;;10.43;3.00;;;;;;;;;;5074876;28;20230;-83
2023/07/30 05:48:23;;;;;;;15.03;3.37;;;;;;;;;;5074906;28;20230;-82
2023/07/30 05:50:51;;;;;;;10.97;3.23;;;;;;;;;;5075189;28;20234;-82
2023/07/30 05:53:18;;;;;;;12.10;2.57;;;;;;;;;;5074933;28;20226;-83
2023/07/30 05:55:45;;;;;;;12.03;2.73;;;;;;;;;;5075488;28;20282;-82
2023/07/30 05:58:14;;;;;;;12.33;2.93;;;;;;;;;;5074732;28;20199;-83
2023/07/30 06:00:41;;;;;;;11.73;3.20;;;;;;;;;;5074225;28;20238;-82
2023/07/30 06:03:09;;;;;;;7.07;2.77;;;;;;;;;;5074892;28;20191;-83
2023/07/30 06:05:40;;;;;;;11.60;3.30;;;;;;;;;;5074541;28;20281;-82
2023/07/30 06:08:07;;;;;;;10.77;2.80;;;;;;;;;;5074630;28;20660;-82
2023/07/30 06:10:35;;;;;;;14.73;3.53;;;;;;;;;;5074810;28;20227;-83
2023/07/30 06:13:02;;;;;;;12.50;3.13;;;;;;;;;;5074965;28;20196;-83
2023/07/30 06:15:31;;;;;;;8.67;2.80;;;;;;;;;;5073986;28;20237;-82
2023/07/30 06:17:58;;;;;;;6.90;2.90;;;;;;;;;;5074493;28;20294;-83
2023/07/30 06:20:25;;;;;;;10.53;2.97;;;;;;;;;;5074578;28;20291;-83
2023/07/30 06:22:53;;;;;;;12.07;3.27;;;;;;;;;;5073912;28;20338;-82
2023/07/30 06:25:20;;;;;;;7.55;2.97;;;;;;;;;;5074392;28;20282;-82
2023/07/30 06:27:47;;;;;;;14.07;3.17;;;;;;;;;;5074157;28;20254;-82
2023/07/30 06:30:14;;;;;;;12.95;3.28;;;;;;;;;;5067873;28;20242;-82
2023/07/30 06:32:43;;;;;;;9.85;2.90;;;;;;;;;;5074441;28;20238;-82
2023/07/30 06:35:10;;;;;;;9.90;2.80;;;;;;;;;;5073828;28;20226;-82
2023/07/30 06:37:37;;;;;;;13.55;3.15;;;;;;;;;;5074157;28;20203;-81
2023/07/30 06:40:06;;;;;;;7.88;2.65;;;;;;;;;;5073735;28;20231;-82
2023/07/30 06:42:33;;;;;;;7.68;2.85;;;;;;;;;;5074042;28;20248;-82
2023/07/30 06:45:00;;;;;;;13.70;3.10;;;;;;;;;;5073677;28;20194;-83
2023/07/30 06:47:27;;;;;;;13.75;3.30;;;;;;;;;;5073677;28;20292;-83
2023/07/30 06:49:56;;;;;;;10.93;2.65;;;;;;;;;;5073030;28;20282;-82
2023/07/30 06:52:23;;;;;;;6.60;2.35;;;;;;;;;;5074009;28;20225;-82
2023/07/30 06:54:50;;;;;;;11.13;3.47;;;;;;;;;;5073821;28;20199;-83
2023/07/30 06:57:18;;;;;;;11.55;3.30;;;;;;;;;;5073376;28;20289;-83
2023/07/30 06:59:45;;;;;;;8.30;2.85;;;;;;;;;;5073565;28;20217;-82
2023/07/30 07:02:12;;;;;;;9.52;3.05;;;;;;;;;;5073402;28;20195;-83
2023/07/30 07:04:39;;;;;;;9.68;2.75;;;;;;;;;;5073698;28;20253;-83
2023/07/30 07:07:08;;;;;;;10.57;2.60;;;;;;;;;;5073885;28;20237;-82
2023/07/30 07:09:35;;;;;;;7.32;2.55;;;;;;;;;;5073488;28;20227;-82
2023/07/30 07:12:03;;;;;;;10.13;2.80;;;;;;;;;;5072932;28;20286;-83
2023/07/30 07:14:30;;;;;;;9.25;2.60;;;;;;;;;;5073697;28;20205;-83
2023/07/30 07:16:57;;;;;;;10.90;3.17;;;;;;;;;;5073454;28;20213;-83
2023/07/30 07:19:24;;;;;;;7.88;2.78;;;;;;;;;;5073357;28;20294;-83
2023/07/30 07:21:51;;;;;;;9.82;3.10;;;;;;;;;;5072894;28;20254;-82
2023/07/30 07:24:20;;;;;;;10.90;2.95;;;;;;;;;;5073492;28;20223;-83
2023/07/30 07:26:47;;;;;;;10.27;3.17;;;;;;;;;;5072638;28;20234;-83
2023/07/30 07:29:14;;;;;;;11.63;3.10;;;;;;;;;;5073541;28;20520;-87
2023/07/30 07:31:42;;;;;;;8.45;2.80;;;;;;;;;;5073341;28;20286;-83
2023/07/30 07:34:10;;;;;;;8.43;3.20;;;;;;;;;;5072490;28;20203;-84
2023/07/30 07:36:38;;;;;;;8.73;3.30;;;;;;;;;;5073389;28;20230;-83
2023/07/30 07:39:06;;;;;;;10.60;3.55;;;;;;;;;;5071978;28;20206;-84
2023/07/30 07:41:34;;;;;;;9.65;3.08;;;;;;;;;;5072248;28;20221;-84
2023/07/30 07:44:02;;;;;;;9.38;3.20;;;;;;;;;;5072904;28;20201;-84
2023/07/30 07:46:29;;;;;;;7.95;2.97;;;;;;;;;;5073089;28;20262;-84
2023/07/30 07:48:56;;;;;;;9.20;3.22;;;;;;;;;;5072291;28;20230;-83
2023/07/30 07:51:23;;;;;;;9.68;3.60;;;;;;;;;;5072552;28;20195;-84
2023/07/30 07:53:50;;;;;;;12.18;3.75;;;;;;;;;;5072860;28;20191;-85
2023/07/30 07:56:17;;;;;;;8.95;2.97;;;;;;;;;;5072364;28;20691;-86
2023/07/30 07:58:46;;;;;;;9.30;3.10;;;;;;;;;;5072455;28;20262;-84
2023/07/30 08:01:14;;;;;;;10.02;3.53;;;;;;;;;;5071796;28;20195;-85
2023/07/30 08:03:41;;;;;;;5.28;3.03;;;;;;;;;;5072423;28;20286;-85
2023/07/30 08:06:08;;;;;;;10.40;3.40;;;;;;;;;;5072687;28;20282;-84
2023/07/30 08:08:35;;;;;;;10.77;3.20;;;;;;;;;;5072223;28;20326;-83
2023/07/30 08:11:07;;;;;;;7.40;3.25;;;;;;;;;;5072332;28;20199;-85
2023/07/30 08:13:34;;;;;;;9.98;3.72;;;;;;;;;;5072287;28;20195;-85
2023/07/30 08:16:03;;;;;;;7.15;3.50;;;;;;;;;;5072029;28;20340;-84
2023/07/30 08:18:30;;;;;;;8.20;3.33;;;;;;;;;;5072591;28;20209;-85
2023/07/30 08:20:58;;;;;;;8.20;3.50;;;;;;;;;;5071907;28;20234;-84
2023/07/30 08:23:25;;;;;;;7.82;3.33;;;;;;;;;;5072369;28;20256;-85
2023/07/30 08:25:52;;;;;;;9.35;3.13;;;;;;;;;;5071365;28;20219;-84
2023/07/30 08:28:19;;;;;;;9.30;3.40;;;;;;;;;;5072032;28;20254;-84
2023/07/30 08:30:47;;;;;;;8.52;3.42;;;;;;;;;;5072044;28;20253;-84
2023/07/30 08:33:15;;;;;;;9.48;3.55;;;;;;;;;;5071842;28;20199;-85
2023/07/30 08:35:42;;;;;;;8.55;3.35;;;;;;;;;;5072219;28;20230;-85
2023/07/30 08:38:10;;;;;;;9.98;3.42;;;;;;;;;;5072014;28;20238;-86
2023/07/30 08:40:37;;;;;;;6.30;3.38;;;;;;;;;;5071525;28;20199;-84
2023/07/30 08:43:05;;;;;;;11.50;3.60;;;;;;;;;;5072343;28;20226;-86
2023/07/30 08:45:32;;;;;;;7.35;3.00;;;;;;;;;;5072137;28;20198;-85
2023/07/30 08:47:59;;;;;;;10.07;3.72;;;;;;;;;;5071225;28;20225;-85
2023/07/30 08:50:28;;;;;;;9.02;3.60;;;;;;;;;;5071749;28;20199;-84
2023/07/30 08:52:56;;;;;;;9.93;3.50;;;;;;;;;;5071312;28;20203;-85
2023/07/30 08:55:24;;;;;;;12.27;3.90;;;;;;;;;;5069416;28;20282;-83
2023/07/30 08:57:52;;;;;;;7.55;3.20;;;;;;;;;;5070992;28;20555;-84
2023/07/30 09:00:20;;;;;;;7.65;3.42;;;;;;;;;;5071245;28;20203;-83
2023/07/30 09:02:49;;;;;;;8.95;3.45;;;;;;;;;;5071357;28;20189;-85
2023/07/30 09:05:17;;;;;;;9.40;3.80;;;;;;;;;;5073278;28;20286;-87
2023/07/30 09:07:45;;;;;;;9.43;3.58;;;;;;;;;;5072420;28;20242;-87
2023/07/30 09:10:14;;;;;;;10.90;3.42;;;;;;;;;;5072828;28;20631;-87
2023/07/30 09:12:41;;;;;;;8.93;3.40;;;;;;;;;;5072534;28;20196;-87
2023/07/30 09:15:09;;;;;;;9.60;3.25;;;;;;;;;;5072945;28;20761;-88
2023/07/30 09:17:36;;;;;;;8.52;3.30;;;;;;;;;;5073482;28;20233;-88
2023/07/30 09:20:04;;;;;;;8.35;3.33;;;;;;;;;;5072567;28;20655;-88
2023/07/30 09:22:33;;;;;;;8.40;3.28;;;;;;;;;;5071605;28;20227;-87
2023/07/30 09:25:03;;;;;;;7.25;3.30;;;;;;;;;;5072164;28;20214;-87
2023/07/30 09:27:31;;;;;;;8.00;3.20;;;;;;;;;;5072016;28;20219;-88
2023/07/30 09:29:58;;;;;;;6.10;3.20;;;;;;;;;;5072459;28;20326;-87
2023/07/30 09:32:27;;;;;;;4.93;3.00;;;;;;;;;;5072138;28;20298;-87
2023/07/30 09:34:54;;;;;;;7.20;3.28;;;;;;;;;;5072084;28;20222;-87
2023/07/30 09:37:22;;;;;;;8.85;3.10;;;;;;;;;;5071881;28;20748;-88
2023/07/30 09:39:50;;;;;;;6.00;2.70;;;;;;;;;;5072476;28;20282;-87
2023/07/30 09:42:18;;;;;;;9.02;3.17;;;;;;;;;;5072064;28;20719;-87
2023/07/30 09:44:49;;;;;;;6.97;2.90;;;;;;;;;;5072864;28;20275;-88
2023/07/30 09:47:16;;;;;;;5.85;2.70;;;;;;;;;;5073735;28;20199;-88
2023/07/30 09:49:43;;;;;;;5.82;2.83;;;;;;;;;;5073143;28;20310;-88
2023/07/30 09:52:11;;;;;;;6.40;3.22;;;;;;;;;;5072113;28;20195;-88
2023/07/30 09:54:39;;;;;;;6.13;2.90;;;;;;;;;;5072510;28;20295;-86
2023/07/30 09:57:07;;;;;;;6.35;2.95;;;;;;;;;;5071444;28;20203;-88
2023/07/30 09:59:35;;;;;;;6.70;3.15;;;;;;;;;;5072193;28;20278;-90
2023/07/30 10:02:03;;;;;;;6.90;3.00;;;;;;;;;;5071831;28;20740;-88
2023/07/30 10:04:32;;;;;;;7.82;3.30;;;;;;;;;;5071014;28;20226;-88
2023/07/30 10:07:04;;;;;;;5.80;3.08;;;;;;;;;;5070980;28;20294;-89
2023/07/30 10:09:33;;;;;;;5.88;3.10;;;;;;;;;;5071676;28;20219;-88
2023/07/30 10:12:03;;;;;;;6.68;3.28;;;;;;;;;;5071444;28;20249;-88
2023/07/30 10:14:30;;;;;;;7.68;2.78;;;;;;;;;;5071252;28;20225;-87
2023/07/30 10:17:01;;;;;;;9.05;3.42;;;;;;;;;;5071658;28;20199;-89
2023/07/30 10:19:29;;;;;;;8.43;3.28;;;;;;;;;;5071218;28;20575;-87
2023/07/30 10:22:02;;;;;;;7.45;3.50;;;;;;;;;;5071002;28;20238;-88
2023/07/30 10:24:29;;;;;;;6.13;3.50;;;;;;;;;;5071788;28;20261;-88
2023/07/30 10:26:59;;;;;;;7.30;3.45;;;;;;;;;;5362795;22;20231;-82
2023/07/30 10:29:26;;;;;;;9.32;3.50;;;;;;;;;;5059715;28;20216;-82
2023/07/30 10:31:55;;;;;;;8.25;4.00;;;;;;;;;;5058972;28;20319;-82
2023/07/30 10:34:24;;;;;;;8.15;3.50;;;;;;;;;;5062201;28;20192;-82
2023/07/30 10:36:54;;;;;;;7.13;3.50;;;;;;;;;;5056723;28;20211;-81
2023/07/30 10:39:23;;;;;;;7.65;3.38;;;;;;;;;;5054231;28;20192;-79
2023/07/30 10:41:51;;;;;;;5.85;3.30;;;;;;;;;;5051151;28;20214;-86
2023/07/30 10:44:25;;;;;;;10.23;3.88;;;;;;;;;;5058404;28;20671;-84
2023/07/30 10:46:53;;;;;;;6.13;3.20;;;;;;;;;;5058835;28;20230;-84
2023/07/30 10:49:20;;;;;;;6.07;3.47;;;;;;;;;;5060641;28;20258;-86
2023/07/30 10:51:49;;;;;;;9.60;3.50;;;;;;;;;;5043827;28;20201;-85
2023/07/30 10:54:18;;;;;;;9.77;3.67;;;;;;;;;;5037518;28;20211;-86
2023/07/30 10:56:46;;;;;;;7.80;3.45;;;;;;;;;;5053619;28;20203;-84
2023/07/30 10:59:13;;;;;;;9.77;3.50;;;;;;;;;;5054475;28;20231;-86
2023/07/30 11:01:41;;;;;;;7.75;4.07;;;;;;;;;;5053796;28;20204;-85
2023/07/30 11:04:10;;;;;;;7.15;3.78;;;;;;;;;;5049747;28;20258;-85
2023/07/30 11:06:37;;;;;;;10.68;3.90;;;;;;;;;;5034936;28;20283;-84
2023/07/30 11:09:06;;;;;;;9.15;3.22;;;;;;;;;;5050617;28;20208;-80
2023/07/30 11:11:34;;;;;;;6.28;3.00;;;;;;;;;;5044549;28;20200;-82
2023/07/30 11:14:01;;;;;;;5.45;3.30;;;;;;;;;;5047555;28;20290;-83
2023/07/30 11:16:28;;;;;;;5.88;3.00;;;;;;;;;;5052307;28;20283;-83
2023/07/30 11:18:56;;;;;;;6.38;3.40;;;;;;;;;;5039517;28;20264;-83
2023/07/30 11:21:23;;;;;;;6.50;3.47;;;;;;;;;;5036738;28;20227;-83
2023/07/30 11:23:52;;;;;;;5.82;3.25;;;;;;;;;;5052967;28;20219;-82
2023/07/30 11:26:21;;;;;;;8.75;3.35;;;;;;;;;;5052446;28;20274;-84
2023/07/30 11:28:48;;;;;;;6.25;3.38;;;;;;;;;;5039606;28;20291;-83
2023/07/30 11:31:18;;;;;;;5.03;3.30;;;;;;;;;;5047951;28;20282;-82
2023/07/30 11:33:47;;;;;;;5.90;3.03;;;;;;;;;;5041977;28;20192;-82
2023/07/30 11:36:15;;;;;;;6.57;3.40;;;;;;;;;;5046877;28;20200;-81
2023/07/30 11:38:43;;;;;;;6.35;3.50;;;;;;;;;;5043463;28;20251;-82
2023/07/30 11:41:11;;;;;;;7.10;3.45;;;;;;;;;;5046529;28;20278;-81
2023/07/30 11:43:41;;;;;;;9.25;3.60;;;;;;;;;;5043834;28;20227;-84
2023/07/30 11:46:12;;;;;;;6.28;4.18;;;;;;;;;;5058809;28;20241;-83
2023/07/30 11:48:40;;;;;;;5.32;3.42;;;;;;;;;;5059992;28;20194;-87
2023/07/30 11:51:07;;;;;;;7.50;3.28;;;;;;;;;;5060811;28;20672;-83
2023/07/30 11:53:46;;;;;;;6.07;3.25;;;;;;;;;;5057528;28;20191;-83
2023/07/30 11:56:16;;;;;;;8.07;3.53;;;;;;;;;;5060447;28;20268;-82
2023/07/30 11:58:45;;;;;;;5.82;2.92;;;;;;;;;;5054675;28;20975;-82
2023/07/30 12:01:13;;;;;;;5.53;3.08;;;;;;;;;;5061994;28;20261;-82
2023/07/30 12:03:41;;;;;;;5.05;2.78;;;;;;;;;;5060251;28;20196;-79
2023/07/30 12:06:08;;;;;;;8.10;3.15;;;;;;;;;;5046509;28;20200;-80
2023/07/30 12:08:36;;;;;;;6.05;3.10;;;;;;;;;;5051243;28;20620;-80
2023/07/30 12:11:06;;;;;;;6.05;3.17;;;;;;;;;;5071408;28;20252;-81
2023/07/30 12:13:34;;;;;;;5.93;3.22;;;;;;;;;;5047655;28;20203;-80
2023/07/30 12:16:02;;;;;;;6.63;3.08;;;;;;;;;;5051894;28;20204;-80
2023/07/30 12:18:30;;;;;;;5.85;3.13;;;;;;;;;;5051844;28;20586;-78
2023/07/30 12:21:02;;;;;;;7.57;3.28;;;;;;;;;;5052149;28;20290;-80
2023/07/30 12:23:30;;;;;;;6.93;3.30;;;;;;;;;;5052523;28;20321;-84
2023/07/30 12:25:57;;;;;;;6.65;3.05;;;;;;;;;;5053066;28;20207;-86
2023/07/30 12:28:24;;;;;;;7.25;3.33;;;;;;;;;;5047496;28;20259;-83
2023/07/30 12:30:52;;;;;;;5.15;3.08;;;;;;;;;;5048886;28;20318;-86
2023/07/30 12:33:20;;;;;;;7.75;3.13;;;;;;;;;;5050517;28;20230;-79
2023/07/30 12:35:50;;;;;;;7.55;3.08;;;;;;;;;;5050235;28;20195;-81
2023/07/30 12:38:17;;;;;;;6.78;2.97;;;;;;;;;;5050714;28;20228;-80
2023/07/30 12:40:44;;;;;;;5.85;2.90;;;;;;;;;;5050391;28;20199;-80
2023/07/30 12:43:11;;;;;;;6.35;2.80;;;;;;;;;;5050553;28;20294;-81
2023/07/30 12:45:39;;;;;;;6.95;3.25;;;;;;;;;;5049041;28;20204;-79
2023/07/30 12:48:07;;;;;;;6.90;3.17;;;;;;;;;;5050438;28;20196;-80
2023/07/30 12:50:36;;;;;;;9.13;3.13;;;;;;;;;;5050342;28;20220;-79
2023/07/30 12:53:03;;;;;;;8.02;3.25;;;;;;;;;;5049807;28;20290;-77
2023/07/30 12:55:31;;;;;;;6.10;3.00;;;;;;;;;;5047029;28;20203;-79
2023/07/30 12:57:58;;;;;;;5.63;3.05;;;;;;;;;;5044994;28;20257;-78
2023/07/30 13:00:26;;;;;;;5.60;3.30;;;;;;;;;;5045022;28;20222;-79
2023/07/30 13:02:55;;;;;;;5.30;3.22;;;;;;;;;;5046614;28;20279;-79
2023/07/30 13:05:22;;;;;;;7.15;3.00;;;;;;;;;;5047088;28;20192;-80
2023/07/30 13:07:51;;;;;;;6.35;3.05;;;;;;;;;;5059569;28;20277;-80
2023/07/30 13:10:18;;;;;;;7.90;3.35;;;;;;;;;;5055340;28;20350;-79
2023/07/30 13:12:45;;;;;;;4.30;2.65;;;;;;;;;;5050932;28;20667;-78
2023/07/30 13:15:12;;;;;;;5.88;2.90;;;;;;;;;;5050722;28;20219;-79
2023/07/30 13:17:39;;;;;;;7.20;3.10;;;;;;;;;;5050882;28;20210;-80
2023/07/30 13:20:08;;;;;;;8.10;3.10;;;;;;;;;;5056272;28;20211;-80
2023/07/30 13:22:35;;;;;;;7.72;2.90;;;;;;;;;;5044089;28;20247;-80
2023/07/30 13:25:04;;;;;;;8.60;2.97;;;;;;;;;;5047770;28;20318;-79
2023/07/30 13:27:31;;;;;;;6.80;2.75;;;;;;;;;;5050398;28;20663;-81
2023/07/30 13:29:58;;;;;;;7.40;2.70;;;;;;;;;;5049813;28;20216;-83
2023/07/30 13:32:25;;;;;;;7.13;2.95;;;;;;;;;;5048550;28;20292;-80
2023/07/30 13:34:53;;;;;;;6.43;2.50;;;;;;;;;;5047956;28;20231;-75
2023/07/30 13:37:20;;;;;;;4.97;2.65;;;;;;;;;;5049908;28;20196;-75
2023/07/30 13:39:47;;;;;;;6.88;2.95;;;;;;;;;;5050374;28;20298;-75
2023/07/30 13:42:16;;;;;;;6.43;2.47;;;;;;;;;;5049413;28;20751;-80
2023/07/30 13:44:43;;;;;;;7.45;2.90;;;;;;;;;;5048851;28;20275;-80
2023/07/30 13:47:10;;;;;;;8.20;2.60;;;;;;;;;;5050102;28;20275;-78
2023/07/30 13:49:37;;;;;;;5.68;2.72;;;;;;;;;;5050099;28;20231;-80
2023/07/30 13:52:05;;;;;;;7.20;2.85;;;;;;;;;;5045710;28;20683;-79
2023/07/30 13:54:32;;;;;;;6.57;2.53;;;;;;;;;;5049692;28;20223;-80
2023/07/30 13:56:59;;;;;;;7.25;2.50;;;;;;;;;;5043558;28;20672;-80
2023/07/30 13:59:27;;;;;;;7.13;2.72;;;;;;;;;;5046051;28;20290;-78
2023/07/30 14:01:55;;;;;;;7.18;3.10;;;;;;;;;;5054285;28;20195;-78
2023/07/30 14:04:22;;;;;;;5.03;2.75;;;;;;;;;;5053718;28;20234;-78
2023/07/30 14:06:49;;;;;;;6.20;2.58;;;;;;;;;;5054119;28;20291;-78
2023/07/30 14:09:16;;;;;;;8.40;2.70;;;;;;;;;;5052983;28;20238;-78
2023/07/30 14:11:46;;;;;;;7.57;2.72;;;;;;;;;;5053755;28;20250;-78
2023/07/30 14:14:13;;;;;;;6.88;2.78;;;;;;;;;;5053852;28;20204;-78
2023/07/30 14:16:42;;;;;;;5.20;2.65;;;;;;;;;;5050444;28;20191;-79
2023/07/30 14:19:09;;;;;;;7.03;2.50;;;;;;;;;;5053964;28;20231;-79
2023/07/30 14:21:36;;;;;;;6.53;2.60;;;;;;;;;;5053052;28;20239;-80
2023/07/30 14:24:03;;;;;;;7.30;2.90;;;;;;;;;;5051941;28;20295;-80
2023/07/30 14:26:30;;;;;;;5.72;3.00;;;;;;;;;;5042535;28;20297;-80
2023/07/30 14:28:57;;;;;;;6.60;2.67;;;;;;;;;;5052665;28;20261;-80
2023/07/30 14:31:25;;;;;;;5.38;2.28;;;;;;;;;;5058330;28;20254;-79
2023/07/30 14:33:53;;;;;;;7.05;2.72;;;;;;;;;;5049365;28;20218;-82
2023/07/30 14:36:20;;;;;;;7.43;3.22;;;;;;;;;;5046014;28;20227;-85
2023/07/30 14:38:48;;;;;;;4.40;2.67;;;;;;;;;;5042595;28;20675;-85
2023/07/30 14:41:15;;;;;;;9.50;3.10;;;;;;;;;;5045863;28;20220;-84
2023/07/30 14:43:42;;;;;;;6.75;2.55;;;;;;;;;;5039232;28;20204;-83